sensor_id;sensor_type;location;lat;lon;timestamp;P1;durP1;ratioP1;P2;durP2;ratioP2
77310;SDS011;66371;52.714;5.074;2023-06-26T00:01:02;12.07;;;9.77;;
77310;SDS011;66371;52.714;5.074;2023-06-26T00:03:27;14.35;;;10.48;;
77310;SDS011;66371;52.714;5.074;2023-06-26T00:05:54;12.27;;;11.07;;
77310;SDS011;66371;52.714;5.074;2023-06-26T00:08:19;15.30;;;11.68;;
77310;SDS011;66371;52.714;5.074;2023-06-26T00:10:44;11.95;;;10.63;;
77310;SDS011;66371;52.714;5.074;2023-06-26T00:13:11;14.80;;;11.30;;
77310;SDS011;66371;52.714;5.074;2023-06-26T00:15:37;12.27;;;10.95;;
77310;SDS011;66371;52.714;5.074;2023-06-26T00:18:03;14.20;;;10.73;;
77310;SDS011;66371;52.714;5.074;2023-06-26T00:20:28;14.43;;;11.75;;
77310;SDS011;66371;52.714;5.074;2023-06-26T00:22:54;13.18;;;11.00;;
77310;SDS011;66371;52.714;5.074;2023-06-26T00:25:20;14.65;;;11.48;;
77310;SDS011;66371;52.714;5.074;2023-06-26T00:27:45;17.00;;;12.38;;
77310;SDS011;66371;52.714;5.074;2023-06-26T00:30:11;14.52;;;11.38;;
77310;SDS011;66371;52.714;5.074;2023-06-26T00:32:37;17.48;;;11.25;;
77310;SDS011;66371;52.714;5.074;2023-06-26T00:35:02;19.33;;;14.55;;
77310;SDS011;66371;52.714;5.074;2023-06-26T00:37:28;15.13;;;11.10;;
77310;SDS011;66371;52.714;5.074;2023-06-26T00:39:53;15.55;;;11.85;;
77310;SDS011;66371;52.714;5.074;2023-06-26T00:42:18;13.17;;;11.23;;
77310;SDS011;66371;52.714;5.074;2023-06-26T00:44:44;14.97;;;11.93;;
77310;SDS011;66371;52.714;5.074;2023-06-26T00:47:10;14.32;;;9.98;;
77310;SDS011;66371;52.714;5.074;2023-06-26T00:49:39;16.13;;;14.20;;
77310;SDS011;66371;52.714;5.074;2023-06-26T00:52:04;15.30;;;13.23;;
77310;SDS011;66371;52.714;5.074;2023-06-26T00:54:31;15.45;;;12.63;;
77310;SDS011;66371;52.714;5.074;2023-06-26T00:56:56;16.65;;;11.35;;
77310;SDS011;66371;52.714;5.074;2023-06-26T00:59:22;17.25;;;11.95;;
77310;SDS011;66371;52.714;5.074;2023-06-26T01:06:47;12.97;;;10.57;;
77310;SDS011;66371;52.714;5.074;2023-06-26T01:09:22;12.18;;;8.20;;
77310;SDS011;66371;52.714;5.074;2023-06-26T01:11:48;11.25;;;8.80;;
77310;SDS011;66371;52.714;5.074;2023-06-26T01:14:13;11.23;;;7.33;;
77310;SDS011;66371;52.714;5.074;2023-06-26T01:16:39;10.27;;;6.53;;
77310;SDS011;66371;52.714;5.074;2023-06-26T01:19:10;9.88;;;7.35;;
77310;SDS011;66371;52.714;5.074;2023-06-26T01:21:40;14.73;;;8.50;;
77310;SDS011;66371;52.714;5.074;2023-06-26T01:24:18;12.68;;;7.80;;
77310;SDS011;66371;52.714;5.074;2023-06-26T01:26:45;10.63;;;7.70;;
77310;SDS011;66371;52.714;5.074;2023-06-26T01:29:14;12.68;;;7.05;;
77310;SDS011;66371;52.714;5.074;2023-06-26T01:31:42;11.10;;;8.35;;
77310;SDS011;66371;52.714;5.074;2023-06-26T01:34:11;12.50;;;7.97;;
77310;SDS011;66371;52.714;5.074;2023-06-26T01:36:37;14.70;;;7.82;;
77310;SDS011;66371;52.714;5.074;2023-06-26T01:39:02;12.20;;;7.05;;
77310;SDS011;66371;52.714;5.074;2023-06-26T01:41:27;13.52;;;8.48;;
77310;SDS011;66371;52.714;5.074;2023-06-26T01:46:31;15.27;;;10.93;;
77310;SDS011;66371;52.714;5.074;2023-06-26T01:52:08;11.90;;;7.40;;
77310;SDS011;66371;52.714;5.074;2023-06-26T01:55:03;15.38;;;8.88;;
77310;SDS011;66371;52.714;5.074;2023-06-26T01:57:34;16.98;;;10.05;;
77310;SDS011;66371;52.714;5.074;2023-06-26T02:00:01;12.73;;;8.95;;
77310;SDS011;66371;52.714;5.074;2023-06-26T02:02:30;17.98;;;8.82;;
77310;SDS011;66371;52.714;5.074;2023-06-26T02:04:55;14.77;;;10.88;;
77310;SDS011;66371;52.714;5.074;2023-06-26T02:07:21;16.00;;;9.27;;
77310;SDS011;66371;52.714;5.074;2023-06-26T02:09:46;17.37;;;8.87;;
77310;SDS011;66371;52.714;5.074;2023-06-26T02:12:12;19.70;;;9.98;;
77310;SDS011;66371;52.714;5.074;2023-06-26T02:14:37;17.17;;;9.70;;
77310;SDS011;66371;52.714;5.074;2023-06-26T02:17:03;24.17;;;9.65;;
77310;SDS011;66371;52.714;5.074;2023-06-26T02:19:29;17.27;;;12.15;;
77310;SDS011;66371;52.714;5.074;2023-06-26T02:21:54;16.97;;;8.87;;
77310;SDS011;66371;52.714;5.074;2023-06-26T02:24:19;17.07;;;10.47;;
77310;SDS011;66371;52.714;5.074;2023-06-26T02:26:45;18.35;;;10.32;;
77310;SDS011;66371;52.714;5.074;2023-06-26T02:29:11;18.40;;;12.27;;
77310;SDS011;66371;52.714;5.074;2023-06-26T02:31:37;17.17;;;9.20;;
77310;SDS011;66371;52.714;5.074;2023-06-26T02:34:02;23.13;;;10.87;;
77310;SDS011;66371;52.714;5.074;2023-06-26T02:36:28;20.88;;;10.45;;
77310;SDS011;66371;52.714;5.074;2023-06-26T02:38:53;19.37;;;10.63;;
77310;SDS011;66371;52.714;5.074;2023-06-26T02:41:19;16.77;;;10.47;;
77310;SDS011;66371;52.714;5.074;2023-06-26T02:43:44;23.60;;;10.70;;
77310;SDS011;66371;52.714;5.074;2023-06-26T02:46:09;19.17;;;12.80;;
77310;SDS011;66371;52.714;5.074;2023-06-26T02:48:34;18.07;;;10.57;;
77310;SDS011;66371;52.714;5.074;2023-06-26T02:51:00;20.80;;;11.32;;
77310;SDS011;66371;52.714;5.074;2023-06-26T02:53:25;18.50;;;9.47;;
77310;SDS011;66371;52.714;5.074;2023-06-26T02:55:51;12.97;;;10.93;;
77310;SDS011;66371;52.714;5.074;2023-06-26T02:58:16;19.10;;;10.23;;
77310;SDS011;66371;52.714;5.074;2023-06-26T03:00:41;16.03;;;9.87;;
77310;SDS011;66371;52.714;5.074;2023-06-26T03:03:08;21.48;;;10.75;;
77310;SDS011;66371;52.714;5.074;2023-06-26T03:05:34;14.40;;;8.73;;
77310;SDS011;66371;52.714;5.074;2023-06-26T03:07:59;16.65;;;10.63;;
77310;SDS011;66371;52.714;5.074;2023-06-26T03:10:25;20.48;;;10.63;;
77310;SDS011;66371;52.714;5.074;2023-06-26T03:12:50;16.67;;;9.20;;
77310;SDS011;66371;52.714;5.074;2023-06-26T03:15:15;20.65;;;9.18;;
77310;SDS011;66371;52.714;5.074;2023-06-26T03:17:41;15.20;;;9.60;;
77310;SDS011;66371;52.714;5.074;2023-06-26T03:20:06;12.35;;;9.15;;
77310;SDS011;66371;52.714;5.074;2023-06-26T03:22:33;15.63;;;9.48;;
77310;SDS011;66371;52.714;5.074;2023-06-26T03:24:58;18.15;;;11.80;;
77310;SDS011;66371;52.714;5.074;2023-06-26T03:27:24;14.50;;;10.05;;
77310;SDS011;66371;52.714;5.074;2023-06-26T03:29:51;17.67;;;8.55;;
77310;SDS011;66371;52.714;5.074;2023-06-26T03:32:17;16.55;;;9.32;;
77310;SDS011;66371;52.714;5.074;2023-06-26T03:34:42;17.67;;;8.80;;
77310;SDS011;66371;52.714;5.074;2023-06-26T03:37:08;16.43;;;9.50;;
77310;SDS011;66371;52.714;5.074;2023-06-26T03:39:33;13.67;;;8.97;;
77310;SDS011;66371;52.714;5.074;2023-06-26T03:41:58;16.77;;;9.20;;
77310;SDS011;66371;52.714;5.074;2023-06-26T03:44:26;15.15;;;8.95;;
77310;SDS011;66371;52.714;5.074;2023-06-26T03:46:54;12.70;;;8.60;;
77310;SDS011;66371;52.714;5.074;2023-06-26T03:49:19;10.50;;;7.28;;
77310;SDS011;66371;52.714;5.074;2023-06-26T03:51:45;12.18;;;7.45;;
77310;SDS011;66371;52.714;5.074;2023-06-26T03:54:10;16.58;;;7.82;;
77310;SDS011;66371;52.714;5.074;2023-06-26T03:56:36;14.25;;;7.78;;
77310;SDS011;66371;52.714;5.074;2023-06-26T03:59:01;16.15;;;6.03;;
77310;SDS011;66371;52.714;5.074;2023-06-26T04:01:27;11.73;;;6.22;;
77310;SDS011;66371;52.714;5.074;2023-06-26T04:03:52;12.20;;;6.53;;
77310;SDS011;66371;52.714;5.074;2023-06-26T04:06:18;12.00;;;6.00;;
77310;SDS011;66371;52.714;5.074;2023-06-26T04:08:43;12.70;;;5.80;;
77310;SDS011;66371;52.714;5.074;2023-06-26T04:11:08;14.52;;;7.82;;
77310;SDS011;66371;52.714;5.074;2023-06-26T04:13:34;13.13;;;7.68;;
77310;SDS011;66371;52.714;5.074;2023-06-26T04:15:59;12.30;;;6.00;;
77310;SDS011;66371;52.714;5.074;2023-06-26T04:18:25;9.35;;;4.75;;
77310;SDS011;66371;52.714;5.074;2023-06-26T04:21:04;9.35;;;5.93;;
77310;SDS011;66371;52.714;5.074;2023-06-26T04:23:32;12.00;;;6.03;;
77310;SDS011;66371;52.714;5.074;2023-06-26T04:25:58;9.02;;;5.65;;
77310;SDS011;66371;52.714;5.074;2023-06-26T04:28:23;10.23;;;5.75;;
77310;SDS011;66371;52.714;5.074;2023-06-26T04:30:49;7.50;;;4.97;;
77310;SDS011;66371;52.714;5.074;2023-06-26T04:33:14;10.93;;;6.20;;
77310;SDS011;66371;52.714;5.074;2023-06-26T04:35:40;13.70;;;5.93;;
77310;SDS011;66371;52.714;5.074;2023-06-26T04:38:05;10.75;;;6.63;;
77310;SDS011;66371;52.714;5.074;2023-06-26T04:40:31;10.50;;;5.50;;
77310;SDS011;66371;52.714;5.074;2023-06-26T04:42:56;12.50;;;5.75;;
77310;SDS011;66371;52.714;5.074;2023-06-26T04:45:22;10.63;;;5.70;;
77310;SDS011;66371;52.714;5.074;2023-06-26T04:47:47;11.83;;;5.80;;
77310;SDS011;66371;52.714;5.074;2023-06-26T04:50:12;11.27;;;5.77;;
77310;SDS011;66371;52.714;5.074;2023-06-26T04:52:38;10.35;;;5.00;;
77310;SDS011;66371;52.714;5.074;2023-06-26T04:55:03;8.43;;;5.07;;
77310;SDS011;66371;52.714;5.074;2023-06-26T04:57:29;8.73;;;5.10;;
77310;SDS011;66371;52.714;5.074;2023-06-26T04:59:54;7.18;;;4.65;;
77310;SDS011;66371;52.714;5.074;2023-06-26T05:02:20;9.10;;;5.50;;
77310;SDS011;66371;52.714;5.074;2023-06-26T05:04:45;8.30;;;4.57;;
77310;SDS011;66371;52.714;5.074;2023-06-26T05:07:12;11.57;;;5.32;;
77310;SDS011;66371;52.714;5.074;2023-06-26T05:09:37;10.48;;;6.60;;
77310;SDS011;66371;52.714;5.074;2023-06-26T05:12:03;11.63;;;7.60;;
77310;SDS011;66371;52.714;5.074;2023-06-26T05:14:28;9.23;;;6.45;;
77310;SDS011;66371;52.714;5.074;2023-06-26T05:16:53;10.03;;;7.03;;
77310;SDS011;66371;52.714;5.074;2023-06-26T05:19:19;9.52;;;7.07;;
77310;SDS011;66371;52.714;5.074;2023-06-26T05:21:44;7.77;;;5.50;;
77310;SDS011;66371;52.714;5.074;2023-06-26T05:24:10;10.52;;;4.97;;
77310;SDS011;66371;52.714;5.074;2023-06-26T05:26:38;13.77;;;8.02;;
77310;SDS011;66371;52.714;5.074;2023-06-26T05:29:03;10.70;;;4.88;;
77310;SDS011;66371;52.714;5.074;2023-06-26T05:31:31;12.05;;;5.82;;
77310;SDS011;66371;52.714;5.074;2023-06-26T05:33:58;13.40;;;8.23;;
77310;SDS011;66371;52.714;5.074;2023-06-26T05:36:27;7.97;;;5.38;;
77310;SDS011;66371;52.714;5.074;2023-06-26T05:38:54;12.07;;;5.15;;
77310;SDS011;66371;52.714;5.074;2023-06-26T05:41:21;10.73;;;7.50;;
77310;SDS011;66371;52.714;5.074;2023-06-26T05:43:47;10.45;;;5.65;;
77310;SDS011;66371;52.714;5.074;2023-06-26T05:46:12;9.45;;;5.35;;
77310;SDS011;66371;52.714;5.074;2023-06-26T05:48:38;7.53;;;5.10;;
77310;SDS011;66371;52.714;5.074;2023-06-26T05:51:04;9.38;;;3.78;;
77310;SDS011;66371;52.714;5.074;2023-06-26T05:53:30;8.65;;;4.43;;
77310;SDS011;66371;52.714;5.074;2023-06-26T05:55:56;8.07;;;4.03;;
77310;SDS011;66371;52.714;5.074;2023-06-26T05:58:21;5.28;;;4.60;;
77310;SDS011;66371;52.714;5.074;2023-06-26T06:00:51;7.20;;;4.47;;
77310;SDS011;66371;52.714;5.074;2023-06-26T06:03:16;7.15;;;4.75;;
77310;SDS011;66371;52.714;5.074;2023-06-26T06:05:42;7.70;;;4.13;;
77310;SDS011;66371;52.714;5.074;2023-06-26T06:08:07;9.15;;;4.32;;
77310;SDS011;66371;52.714;5.074;2023-06-26T06:10:32;7.43;;;3.77;;
77310;SDS011;66371;52.714;5.074;2023-06-26T06:12:58;9.03;;;5.20;;
77310;SDS011;66371;52.714;5.074;2023-06-26T06:15:23;6.80;;;4.18;;
77310;SDS011;66371;52.714;5.074;2023-06-26T06:17:48;8.38;;;4.35;;
77310;SDS011;66371;52.714;5.074;2023-06-26T06:20:14;14.43;;;4.30;;
77310;SDS011;66371;52.714;5.074;2023-06-26T06:22:39;7.18;;;4.07;;
77310;SDS011;66371;52.714;5.074;2023-06-26T06:25:05;9.40;;;6.37;;
77310;SDS011;66371;52.714;5.074;2023-06-26T06:27:30;10.05;;;5.25;;
77310;SDS011;66371;52.714;5.074;2023-06-26T06:29:56;10.38;;;7.00;;
77310;SDS011;66371;52.714;5.074;2023-06-26T06:32:21;6.78;;;4.25;;
77310;SDS011;66371;52.714;5.074;2023-06-26T06:34:47;10.80;;;5.30;;
77310;SDS011;66371;52.714;5.074;2023-06-26T06:37:12;9.85;;;4.57;;
77310;SDS011;66371;52.714;5.074;2023-06-26T06:39:38;6.50;;;3.78;;
77310;SDS011;66371;52.714;5.074;2023-06-26T06:42:03;9.35;;;4.57;;
77310;SDS011;66371;52.714;5.074;2023-06-26T06:44:29;5.95;;;4.00;;
77310;SDS011;66371;52.714;5.074;2023-06-26T06:46:57;8.07;;;4.47;;
77310;SDS011;66371;52.714;5.074;2023-06-26T06:49:23;10.63;;;6.28;;
77310;SDS011;66371;52.714;5.074;2023-06-26T06:51:48;5.80;;;3.73;;
77310;SDS011;66371;52.714;5.074;2023-06-26T06:54:15;11.75;;;4.95;;
77310;SDS011;66371;52.714;5.074;2023-06-26T06:56:40;8.95;;;4.07;;
77310;SDS011;66371;52.714;5.074;2023-06-26T06:59:06;12.83;;;5.93;;
77310;SDS011;66371;52.714;5.074;2023-06-26T07:01:31;9.77;;;4.32;;
77310;SDS011;66371;52.714;5.074;2023-06-26T07:03:56;5.85;;;3.53;;
77310;SDS011;66371;52.714;5.074;2023-06-26T07:06:22;9.32;;;4.43;;
77310;SDS011;66371;52.714;5.074;2023-06-26T07:08:48;10.45;;;4.85;;
77310;SDS011;66371;52.714;5.074;2023-06-26T07:11:13;10.43;;;4.57;;
77310;SDS011;66371;52.714;5.074;2023-06-26T07:13:38;8.93;;;4.43;;
77310;SDS011;66371;52.714;5.074;2023-06-26T07:16:04;10.52;;;4.32;;
77310;SDS011;66371;52.714;5.074;2023-06-26T07:18:29;11.57;;;4.17;;
77310;SDS011;66371;52.714;5.074;2023-06-26T07:20:54;13.17;;;4.63;;
77310;SDS011;66371;52.714;5.074;2023-06-26T07:23:20;9.10;;;4.60;;
77310;SDS011;66371;52.714;5.074;2023-06-26T07:25:45;12.53;;;4.53;;
77310;SDS011;66371;52.714;5.074;2023-06-26T07:28:11;8.20;;;4.27;;
77310;SDS011;66371;52.714;5.074;2023-06-26T07:30:37;12.52;;;4.75;;
77310;SDS011;66371;52.714;5.074;2023-06-26T07:33:03;15.82;;;4.65;;
77310;SDS011;66371;52.714;5.074;2023-06-26T07:35:28;10.80;;;4.78;;
77310;SDS011;66371;52.714;5.074;2023-06-26T07:37:54;8.50;;;4.70;;
77310;SDS011;66371;52.714;5.074;2023-06-26T07:40:19;11.88;;;4.45;;
77310;SDS011;66371;52.714;5.074;2023-06-26T07:42:44;10.35;;;6.00;;
77310;SDS011;66371;52.714;5.074;2023-06-26T07:45:11;11.27;;;5.43;;
77310;SDS011;66371;52.714;5.074;2023-06-26T07:47:37;10.63;;;5.30;;
77310;SDS011;66371;52.714;5.074;2023-06-26T07:50:03;14.63;;;5.50;;
77310;SDS011;66371;52.714;5.074;2023-06-26T07:52:29;12.50;;;4.38;;
77310;SDS011;66371;52.714;5.074;2023-06-26T07:54:57;8.50;;;4.30;;
77310;SDS011;66371;52.714;5.074;2023-06-26T07:57:23;11.27;;;5.70;;
77310;SDS011;66371;52.714;5.074;2023-06-26T07:59:49;11.13;;;4.15;;
77310;SDS011;66371;52.714;5.074;2023-06-26T08:02:15;9.90;;;3.78;;
77310;SDS011;66371;52.714;5.074;2023-06-26T08:04:41;11.75;;;6.57;;
77310;SDS011;66371;52.714;5.074;2023-06-26T08:07:06;9.60;;;4.38;;
77310;SDS011;66371;52.714;5.074;2023-06-26T08:09:32;9.95;;;3.38;;
77310;SDS011;66371;52.714;5.074;2023-06-26T08:11:57;7.68;;;4.32;;
77310;SDS011;66371;52.714;5.074;2023-06-26T08:14:23;12.10;;;4.10;;
77310;SDS011;66371;52.714;5.074;2023-06-26T08:16:49;11.35;;;4.40;;
77310;SDS011;66371;52.714;5.074;2023-06-26T08:19:15;7.85;;;4.53;;
77310;SDS011;66371;52.714;5.074;2023-06-26T08:21:41;6.47;;;4.13;;
77310;SDS011;66371;52.714;5.074;2023-06-26T08:24:08;9.88;;;4.40;;
77310;SDS011;66371;52.714;5.074;2023-06-26T08:26:34;7.93;;;6.05;;
77310;SDS011;66371;52.714;5.074;2023-06-26T08:29:00;9.98;;;5.03;;
77310;SDS011;66371;52.714;5.074;2023-06-26T08:31:32;10.23;;;4.63;;
77310;SDS011;66371;52.714;5.074;2023-06-26T08:33:59;7.82;;;4.63;;
77310;SDS011;66371;52.714;5.074;2023-06-26T08:36:24;9.52;;;4.20;;
77310;SDS011;66371;52.714;5.074;2023-06-26T08:38:50;9.97;;;6.03;;
77310;SDS011;66371;52.714;5.074;2023-06-26T08:41:15;8.00;;;4.10;;
77310;SDS011;66371;52.714;5.074;2023-06-26T08:43:41;12.75;;;4.30;;
77310;SDS011;66371;52.714;5.074;2023-06-26T08:46:07;10.10;;;3.35;;
77310;SDS011;66371;52.714;5.074;2023-06-26T08:48:32;8.40;;;4.68;;
77310;SDS011;66371;52.714;5.074;2023-06-26T08:51:11;8.82;;;4.38;;
77310;SDS011;66371;52.714;5.074;2023-06-26T08:56:06;8.82;;;4.47;;
77310;SDS011;66371;52.714;5.074;2023-06-26T08:58:33;9.75;;;3.58;;
77310;SDS011;66371;52.714;5.074;2023-06-26T09:01:01;5.80;;;3.05;;
77310;SDS011;66371;52.714;5.074;2023-06-26T09:03:27;9.32;;;4.95;;
77310;SDS011;66371;52.714;5.074;2023-06-26T09:05:54;11.93;;;5.60;;
77310;SDS011;66371;52.714;5.074;2023-06-26T09:08:19;9.40;;;3.87;;
77310;SDS011;66371;52.714;5.074;2023-06-26T09:10:45;7.77;;;5.97;;
77310;SDS011;66371;52.714;5.074;2023-06-26T09:13:10;4.90;;;3.05;;
77310;SDS011;66371;52.714;5.074;2023-06-26T09:15:41;9.07;;;3.40;;
77310;SDS011;66371;52.714;5.074;2023-06-26T09:18:07;10.07;;;5.68;;
77310;SDS011;66371;52.714;5.074;2023-06-26T09:20:33;11.50;;;2.88;;
77310;SDS011;66371;52.714;5.074;2023-06-26T09:22:58;8.20;;;3.92;;
77310;SDS011;66371;52.714;5.074;2023-06-26T09:25:25;9.05;;;3.63;;
77310;SDS011;66371;52.714;5.074;2023-06-26T09:27:51;8.75;;;4.35;;
77310;SDS011;66371;52.714;5.074;2023-06-26T09:30:17;9.27;;;2.97;;
77310;SDS011;66371;52.714;5.074;2023-06-26T09:32:43;8.90;;;2.80;;
77310;SDS011;66371;52.714;5.074;2023-06-26T09:35:09;5.68;;;4.38;;
77310;SDS011;66371;52.714;5.074;2023-06-26T09:37:35;5.72;;;3.40;;
77310;SDS011;66371;52.714;5.074;2023-06-26T09:40:01;4.90;;;3.00;;
77310;SDS011;66371;52.714;5.074;2023-06-26T09:42:26;7.25;;;4.22;;
77310;SDS011;66371;52.714;5.074;2023-06-26T09:44:51;7.43;;;2.67;;
77310;SDS011;66371;52.714;5.074;2023-06-26T09:47:20;8.07;;;3.60;;
77310;SDS011;66371;52.714;5.074;2023-06-26T09:49:46;9.05;;;3.30;;
77310;SDS011;66371;52.714;5.074;2023-06-26T09:52:13;6.18;;;3.60;;
77310;SDS011;66371;52.714;5.074;2023-06-26T09:54:41;8.20;;;3.83;;
77310;SDS011;66371;52.714;5.074;2023-06-26T09:57:09;7.30;;;5.03;;
77310;SDS011;66371;52.714;5.074;2023-06-26T09:59:35;8.93;;;3.17;;
77310;SDS011;66371;52.714;5.074;2023-06-26T10:02:01;6.85;;;3.35;;
77310;SDS011;66371;52.714;5.074;2023-06-26T10:04:27;5.95;;;3.65;;
77310;SDS011;66371;52.714;5.074;2023-06-26T10:06:54;5.50;;;2.95;;
77310;SDS011;66371;52.714;5.074;2023-06-26T10:09:21;11.73;;;5.78;;
77310;SDS011;66371;52.714;5.074;2023-06-26T10:11:52;8.88;;;4.05;;
77310;SDS011;66371;52.714;5.074;2023-06-26T10:14:22;12.35;;;3.30;;
77310;SDS011;66371;52.714;5.074;2023-06-26T10:16:51;10.77;;;5.03;;
77310;SDS011;66371;52.714;5.074;2023-06-26T10:19:21;8.05;;;3.20;;
77310;SDS011;66371;52.714;5.074;2023-06-26T10:21:54;7.53;;;3.17;;
77310;SDS011;66371;52.714;5.074;2023-06-26T10:24:20;6.53;;;2.78;;
77310;SDS011;66371;52.714;5.074;2023-06-26T10:26:48;10.40;;;4.13;;
77310;SDS011;66371;52.714;5.074;2023-06-26T10:29:17;9.90;;;4.80;;
77310;SDS011;66371;52.714;5.074;2023-06-26T10:31:47;7.43;;;2.75;;
77310;SDS011;66371;52.714;5.074;2023-06-26T10:34:16;6.18;;;3.58;;
77310;SDS011;66371;52.714;5.074;2023-06-26T10:36:42;8.02;;;3.95;;
77310;SDS011;66371;52.714;5.074;2023-06-26T10:39:07;9.38;;;3.78;;
77310;SDS011;66371;52.714;5.074;2023-06-26T10:41:40;8.02;;;4.85;;
77310;SDS011;66371;52.714;5.074;2023-06-26T10:44:10;14.43;;;3.17;;
77310;SDS011;66371;52.714;5.074;2023-06-26T10:46:52;5.32;;;4.53;;
77310;SDS011;66371;52.714;5.074;2023-06-26T10:49:24;11.25;;;3.90;;
77310;SDS011;66371;52.714;5.074;2023-06-26T10:51:51;6.07;;;3.65;;
77310;SDS011;66371;52.714;5.074;2023-06-26T10:54:17;7.88;;;3.15;;
77310;SDS011;66371;52.714;5.074;2023-06-26T10:56:50;7.90;;;2.63;;
77310;SDS011;66371;52.714;5.074;2023-06-26T10:59:22;8.50;;;2.75;;
77310;SDS011;66371;52.714;5.074;2023-06-26T11:01:56;9.45;;;2.92;;
77310;SDS011;66371;52.714;5.074;2023-06-26T11:07:17;6.50;;;3.53;;
77310;SDS011;66371;52.714;5.074;2023-06-26T11:09:59;18.65;;;5.40;;
77310;SDS011;66371;52.714;5.074;2023-06-26T11:12:35;8.05;;;3.33;;
77310;SDS011;66371;52.714;5.074;2023-06-26T11:15:17;6.63;;;3.55;;
77310;SDS011;66371;52.714;5.074;2023-06-26T11:17:44;8.38;;;2.83;;
77310;SDS011;66371;52.714;5.074;2023-06-26T11:20:10;8.68;;;3.13;;
77310;SDS011;66371;52.714;5.074;2023-06-26T11:22:42;10.00;;;4.53;;
77310;SDS011;66371;52.714;5.074;2023-06-26T11:25:09;5.65;;;3.05;;
77310;SDS011;66371;52.714;5.074;2023-06-26T11:30:05;7.90;;;3.20;;
77310;SDS011;66371;52.714;5.074;2023-06-26T11:32:31;5.50;;;3.42;;
77310;SDS011;66371;52.714;5.074;2023-06-26T11:34:57;7.32;;;4.63;;
77310;SDS011;66371;52.714;5.074;2023-06-26T11:37:23;5.72;;;2.45;;
77310;SDS011;66371;52.714;5.074;2023-06-26T11:39:49;5.57;;;3.03;;
77310;SDS011;66371;52.714;5.074;2023-06-26T11:42:15;6.07;;;3.90;;
77310;SDS011;66371;52.714;5.074;2023-06-26T11:44:41;8.65;;;3.90;;
77310;SDS011;66371;52.714;5.074;2023-06-26T11:47:14;9.40;;;3.03;;
77310;SDS011;66371;52.714;5.074;2023-06-26T11:49:43;10.85;;;3.03;;
77310;SDS011;66371;52.714;5.074;2023-06-26T11:52:10;5.28;;;3.28;;
77310;SDS011;66371;52.714;5.074;2023-06-26T11:54:35;6.70;;;3.15;;
77310;SDS011;66371;52.714;5.074;2023-06-26T11:57:01;11.48;;;3.65;;
77310;SDS011;66371;52.714;5.074;2023-06-26T11:59:36;10.55;;;5.85;;
77310;SDS011;66371;52.714;5.074;2023-06-26T12:02:06;9.18;;;4.55;;
77310;SDS011;66371;52.714;5.074;2023-06-26T12:04:33;7.68;;;3.38;;
77310;SDS011;66371;52.714;5.074;2023-06-26T12:07:00;10.20;;;3.90;;
77310;SDS011;66371;52.714;5.074;2023-06-26T12:09:29;9.23;;;5.13;;
77310;SDS011;66371;52.714;5.074;2023-06-26T12:11:55;8.73;;;3.83;;
77310;SDS011;66371;52.714;5.074;2023-06-26T12:14:22;8.45;;;3.10;;
77310;SDS011;66371;52.714;5.074;2023-06-26T12:16:50;5.70;;;3.60;;
77310;SDS011;66371;52.714;5.074;2023-06-26T12:19:15;7.70;;;3.33;;
77310;SDS011;66371;52.714;5.074;2023-06-26T12:24:07;11.90;;;3.73;;
77310;SDS011;66371;52.714;5.074;2023-06-26T12:26:34;9.88;;;3.80;;
77310;SDS011;66371;52.714;5.074;2023-06-26T12:31:32;9.10;;;3.22;;
77310;SDS011;66371;52.714;5.074;2023-06-26T12:33:59;8.20;;;3.97;;
77310;SDS011;66371;52.714;5.074;2023-06-26T12:36:25;10.07;;;2.92;;
77310;SDS011;66371;52.714;5.074;2023-06-26T12:38:52;6.82;;;4.25;;
77310;SDS011;66371;52.714;5.074;2023-06-26T12:41:18;9.40;;;3.67;;
77310;SDS011;66371;52.714;5.074;2023-06-26T12:43:45;6.40;;;3.63;;
77310;SDS011;66371;52.714;5.074;2023-06-26T12:46:11;8.23;;;3.50;;
77310;SDS011;66371;52.714;5.074;2023-06-26T12:48:40;6.75;;;4.78;;
77310;SDS011;66371;52.714;5.074;2023-06-26T12:51:12;6.20;;;3.67;;
77310;SDS011;66371;52.714;5.074;2023-06-26T12:53:41;5.85;;;3.08;;
77310;SDS011;66371;52.714;5.074;2023-06-26T12:56:07;7.32;;;5.70;;
77310;SDS011;66371;52.714;5.074;2023-06-26T12:58:33;8.63;;;3.47;;
77310;SDS011;66371;52.714;5.074;2023-06-26T13:00:59;6.55;;;2.97;;
77310;SDS011;66371;52.714;5.074;2023-06-26T13:03:25;5.63;;;3.42;;
77310;SDS011;66371;52.714;5.074;2023-06-26T13:05:50;5.68;;;2.53;;
77310;SDS011;66371;52.714;5.074;2023-06-26T13:08:16;8.13;;;4.25;;
77310;SDS011;66371;52.714;5.074;2023-06-26T13:10:44;8.05;;;3.75;;
77310;SDS011;66371;52.714;5.074;2023-06-26T13:13:10;7.25;;;2.90;;
77310;SDS011;66371;52.714;5.074;2023-06-26T13:15:36;6.90;;;3.25;;
77310;SDS011;66371;52.714;5.074;2023-06-26T13:18:02;8.80;;;3.83;;
77310;SDS011;66371;52.714;5.074;2023-06-26T13:20:27;5.28;;;3.03;;
77310;SDS011;66371;52.714;5.074;2023-06-26T13:22:53;4.85;;;3.00;;
77310;SDS011;66371;52.714;5.074;2023-06-26T13:25:19;7.80;;;3.35;;
77310;SDS011;66371;52.714;5.074;2023-06-26T13:27:45;7.82;;;4.32;;
77310;SDS011;66371;52.714;5.074;2023-06-26T13:30:10;6.43;;;3.10;;
77310;SDS011;66371;52.714;5.074;2023-06-26T13:32:36;7.40;;;3.28;;
77310;SDS011;66371;52.714;5.074;2023-06-26T13:35:02;6.18;;;2.58;;
77310;SDS011;66371;52.714;5.074;2023-06-26T13:37:28;10.23;;;2.58;;
77310;SDS011;66371;52.714;5.074;2023-06-26T13:39:54;9.40;;;4.15;;
77310;SDS011;66371;52.714;5.074;2023-06-26T13:42:19;7.20;;;3.73;;
77310;SDS011;66371;52.714;5.074;2023-06-26T13:44:45;6.20;;;3.65;;
77310;SDS011;66371;52.714;5.074;2023-06-26T13:47:12;4.28;;;2.75;;
77310;SDS011;66371;52.714;5.074;2023-06-26T13:49:39;8.00;;;2.88;;
77310;SDS011;66371;52.714;5.074;2023-06-26T13:52:04;7.60;;;2.80;;
77310;SDS011;66371;52.714;5.074;2023-06-26T13:54:32;5.20;;;3.70;;
77310;SDS011;66371;52.714;5.074;2023-06-26T13:56:58;6.90;;;2.72;;
77310;SDS011;66371;52.714;5.074;2023-06-26T13:59:27;4.70;;;3.17;;
77310;SDS011;66371;52.714;5.074;2023-06-26T14:01:53;7.53;;;5.22;;
77310;SDS011;66371;52.714;5.074;2023-06-26T14:04:18;5.30;;;2.53;;
77310;SDS011;66371;52.714;5.074;2023-06-26T14:06:44;6.90;;;2.80;;
77310;SDS011;66371;52.714;5.074;2023-06-26T14:09:10;10.50;;;4.45;;
77310;SDS011;66371;52.714;5.074;2023-06-26T14:11:36;8.55;;;6.18;;
77310;SDS011;66371;52.714;5.074;2023-06-26T14:14:01;13.10;;;5.88;;
77310;SDS011;66371;52.714;5.074;2023-06-26T14:16:27;7.35;;;2.85;;
77310;SDS011;66371;52.714;5.074;2023-06-26T14:18:53;5.95;;;2.97;;
77310;SDS011;66371;52.714;5.074;2023-06-26T14:21:19;9.13;;;4.00;;
77310;SDS011;66371;52.714;5.074;2023-06-26T14:23:44;8.38;;;2.83;;
77310;SDS011;66371;52.714;5.074;2023-06-26T14:26:10;7.15;;;2.70;;
77310;SDS011;66371;52.714;5.074;2023-06-26T14:28:36;7.63;;;3.60;;
77310;SDS011;66371;52.714;5.074;2023-06-26T14:31:01;8.57;;;5.83;;
77310;SDS011;66371;52.714;5.074;2023-06-26T14:33:26;9.95;;;3.65;;
77310;SDS011;66371;52.714;5.074;2023-06-26T14:35:52;7.30;;;3.20;;
77310;SDS011;66371;52.714;5.074;2023-06-26T14:38:17;4.55;;;2.97;;
77310;SDS011;66371;52.714;5.074;2023-06-26T14:40:42;6.90;;;3.10;;
77310;SDS011;66371;52.714;5.074;2023-06-26T14:43:08;6.70;;;3.03;;
77310;SDS011;66371;52.714;5.074;2023-06-26T14:45:33;6.13;;;2.83;;
77310;SDS011;66371;52.714;5.074;2023-06-26T14:47:59;7.15;;;2.72;;
77310;SDS011;66371;52.714;5.074;2023-06-26T14:50:24;5.50;;;3.77;;
77310;SDS011;66371;52.714;5.074;2023-06-26T14:52:49;6.65;;;2.60;;
77310;SDS011;66371;52.714;5.074;2023-06-26T14:55:15;5.27;;;4.50;;
77310;SDS011;66371;52.714;5.074;2023-06-26T14:57:40;5.80;;;3.22;;
77310;SDS011;66371;52.714;5.074;2023-06-26T15:00:06;5.35;;;3.17;;